sensor_id;sensor_type;location;lat;lon;timestamp;P1;durP1;ratioP1;P2;durP2;ratioP2
81821;SDS011;72257;52.384;4.882;2024-02-21T00:01:41;9.13;;;2.28;;
81821;SDS011;72257;52.384;4.882;2024-02-21T00:04:06;14.27;;;2.13;;
81821;SDS011;72257;52.384;4.882;2024-02-21T00:06:32;8.50;;;2.43;;
81821;SDS011;72257;52.384;4.882;2024-02-21T00:08:57;10.82;;;2.22;;
81821;SDS011;72257;52.384;4.882;2024-02-21T00:11:23;9.52;;;2.10;;
81821;SDS011;72257;52.384;4.882;2024-02-21T00:13:48;11.80;;;2.60;;
81821;SDS011;72257;52.384;4.882;2024-02-21T00:16:13;8.77;;;2.37;;
81821;SDS011;72257;52.384;4.882;2024-02-21T00:18:40;14.88;;;2.90;;
81821;SDS011;72257;52.384;4.882;2024-02-21T00:21:10;11.93;;;2.88;;
81821;SDS011;72257;52.384;4.882;2024-02-21T00:23:42;9.48;;;2.65;;
81821;SDS011;72257;52.384;4.882;2024-02-21T00:26:08;6.45;;;1.92;;
81821;SDS011;72257;52.384;4.882;2024-02-21T00:28:33;6.30;;;2.30;;
81821;SDS011;72257;52.384;4.882;2024-02-21T00:30:59;11.83;;;2.53;;
81821;SDS011;72257;52.384;4.882;2024-02-21T00:33:24;11.00;;;2.63;;
81821;SDS011;72257;52.384;4.882;2024-02-21T00:35:49;11.93;;;3.22;;
81821;SDS011;72257;52.384;4.882;2024-02-21T00:38:15;10.57;;;2.40;;
81821;SDS011;72257;52.384;4.882;2024-02-21T00:40:40;8.40;;;2.15;;
81821;SDS011;72257;52.384;4.882;2024-02-21T00:43:06;13.27;;;2.63;;
81821;SDS011;72257;52.384;4.882;2024-02-21T00:45:32;7.60;;;2.27;;
81821;SDS011;72257;52.384;4.882;2024-02-21T00:47:58;11.60;;;3.03;;
81821;SDS011;72257;52.384;4.882;2024-02-21T00:50:23;9.02;;;2.20;;
81821;SDS011;72257;52.384;4.882;2024-02-21T00:52:48;22.17;;;3.20;;
81821;SDS011;72257;52.384;4.882;2024-02-21T00:55:14;11.43;;;2.80;;
81821;SDS011;72257;52.384;4.882;2024-02-21T00:57:39;7.50;;;1.97;;
81821;SDS011;72257;52.384;4.882;2024-02-21T01:00:04;11.73;;;2.83;;
81821;SDS011;72257;52.384;4.882;2024-02-21T01:02:30;10.93;;;2.55;;
81821;SDS011;72257;52.384;4.882;2024-02-21T01:04:58;8.95;;;3.75;;
81821;SDS011;72257;52.384;4.882;2024-02-21T01:07:24;15.70;;;3.78;;
81821;SDS011;72257;52.384;4.882;2024-02-21T01:09:49;12.70;;;2.63;;
81821;SDS011;72257;52.384;4.882;2024-02-21T01:12:16;10.93;;;2.78;;
81821;SDS011;72257;52.384;4.882;2024-02-21T01:14:41;10.13;;;2.83;;
81821;SDS011;72257;52.384;4.882;2024-02-21T01:17:07;10.68;;;2.28;;
81821;SDS011;72257;52.384;4.882;2024-02-21T01:19:32;8.77;;;2.15;;
81821;SDS011;72257;52.384;4.882;2024-02-21T01:21:57;11.40;;;2.08;;
81821;SDS011;72257;52.384;4.882;2024-02-21T01:24:23;12.13;;;3.33;;
81821;SDS011;72257;52.384;4.882;2024-02-21T01:26:49;9.80;;;3.00;;
81821;SDS011;72257;52.384;4.882;2024-02-21T01:29:15;18.50;;;2.90;;
81821;SDS011;72257;52.384;4.882;2024-02-21T01:31:40;11.20;;;2.30;;
81821;SDS011;72257;52.384;4.882;2024-02-21T01:34:05;21.47;;;3.17;;
81821;SDS011;72257;52.384;4.882;2024-02-21T01:36:31;11.93;;;2.73;;
81821;SDS011;72257;52.384;4.882;2024-02-21T01:38:56;17.15;;;3.33;;
81821;SDS011;72257;52.384;4.882;2024-02-21T01:41:21;9.70;;;2.97;;
81821;SDS011;72257;52.384;4.882;2024-02-21T01:43:47;9.60;;;2.77;;
81821;SDS011;72257;52.384;4.882;2024-02-21T01:46:12;11.20;;;2.57;;
81821;SDS011;72257;52.384;4.882;2024-02-21T01:48:37;10.87;;;2.77;;
81821;SDS011;72257;52.384;4.882;2024-02-21T01:51:03;11.07;;;2.67;;
81821;SDS011;72257;52.384;4.882;2024-02-21T01:53:30;8.65;;;2.10;;
81821;SDS011;72257;52.384;4.882;2024-02-21T01:56:00;8.90;;;2.30;;
81821;SDS011;72257;52.384;4.882;2024-02-21T01:58:26;12.40;;;2.95;;
81821;SDS011;72257;52.384;4.882;2024-02-21T02:00:53;14.38;;;3.03;;
81821;SDS011;72257;52.384;4.882;2024-02-21T02:03:21;6.90;;;2.28;;
81821;SDS011;72257;52.384;4.882;2024-02-21T02:05:47;14.50;;;2.88;;
81821;SDS011;72257;52.384;4.882;2024-02-21T02:08:14;19.23;;;3.17;;
81821;SDS011;72257;52.384;4.882;2024-02-21T02:10:40;10.52;;;2.50;;
81821;SDS011;72257;52.384;4.882;2024-02-21T02:13:06;10.85;;;2.58;;
81821;SDS011;72257;52.384;4.882;2024-02-21T02:15:41;11.38;;;2.90;;
81821;SDS011;72257;52.384;4.882;2024-02-21T02:18:08;11.38;;;2.42;;
81821;SDS011;72257;52.384;4.882;2024-02-21T02:20:35;14.32;;;3.00;;
81821;SDS011;72257;52.384;4.882;2024-02-21T02:23:01;11.15;;;2.28;;
81821;SDS011;72257;52.384;4.882;2024-02-21T02:25:29;7.75;;;2.78;;
81821;SDS011;72257;52.384;4.882;2024-02-21T02:27:55;14.90;;;3.27;;
81821;SDS011;72257;52.384;4.882;2024-02-21T02:30:20;18.65;;;3.58;;
81821;SDS011;72257;52.384;4.882;2024-02-21T02:32:46;14.48;;;3.38;;
81821;SDS011;72257;52.384;4.882;2024-02-21T02:35:12;13.00;;;2.90;;
81821;SDS011;72257;52.384;4.882;2024-02-21T02:37:37;12.10;;;2.70;;
81821;SDS011;72257;52.384;4.882;2024-02-21T02:40:04;11.45;;;2.50;;
81821;SDS011;72257;52.384;4.882;2024-02-21T02:42:31;14.15;;;3.47;;
81821;SDS011;72257;52.384;4.882;2024-02-21T02:44:56;10.43;;;2.23;;
81821;SDS011;72257;52.384;4.882;2024-02-21T02:47:22;13.77;;;3.17;;
81821;SDS011;72257;52.384;4.882;2024-02-21T02:49:48;7.43;;;3.42;;
81821;SDS011;72257;52.384;4.882;2024-02-21T02:52:15;14.95;;;3.28;;
81821;SDS011;72257;52.384;4.882;2024-02-21T02:54:44;12.18;;;3.33;;
81821;SDS011;72257;52.384;4.882;2024-02-21T02:57:10;15.00;;;3.35;;
81821;SDS011;72257;52.384;4.882;2024-02-21T02:59:35;15.73;;;3.10;;
81821;SDS011;72257;52.384;4.882;2024-02-21T03:02:01;7.20;;;2.83;;
81821;SDS011;72257;52.384;4.882;2024-02-21T03:04:26;11.25;;;2.88;;
81821;SDS011;72257;52.384;4.882;2024-02-21T03:06:51;11.90;;;2.93;;
81821;SDS011;72257;52.384;4.882;2024-02-21T03:09:18;12.65;;;2.40;;
81821;SDS011;72257;52.384;4.882;2024-02-21T03:11:43;10.73;;;2.83;;
81821;SDS011;72257;52.384;4.882;2024-02-21T03:14:09;14.00;;;2.88;;
81821;SDS011;72257;52.384;4.882;2024-02-21T03:16:35;10.05;;;2.75;;
81821;SDS011;72257;52.384;4.882;2024-02-21T03:19:00;10.95;;;2.17;;
81821;SDS011;72257;52.384;4.882;2024-02-21T03:21:26;19.50;;;3.67;;
81821;SDS011;72257;52.384;4.882;2024-02-21T03:23:51;14.27;;;3.30;;
81821;SDS011;72257;52.384;4.882;2024-02-21T03:26:16;9.67;;;2.93;;
81821;SDS011;72257;52.384;4.882;2024-02-21T03:28:42;13.80;;;3.08;;
81821;SDS011;72257;52.384;4.882;2024-02-21T03:31:13;9.85;;;2.13;;
81821;SDS011;72257;52.384;4.882;2024-02-21T03:33:39;12.02;;;2.75;;
81821;SDS011;72257;52.384;4.882;2024-02-21T03:36:06;11.75;;;2.55;;
81821;SDS011;72257;52.384;4.882;2024-02-21T03:38:31;11.90;;;3.08;;
81821;SDS011;72257;52.384;4.882;2024-02-21T03:40:56;14.47;;;3.10;;
81821;SDS011;72257;52.384;4.882;2024-02-21T03:43:22;12.43;;;2.87;;
81821;SDS011;72257;52.384;4.882;2024-02-21T03:45:47;8.07;;;2.70;;
81821;SDS011;72257;52.384;4.882;2024-02-21T03:48:12;10.23;;;2.78;;
81821;SDS011;72257;52.384;4.882;2024-02-21T03:50:38;13.47;;;2.83;;
81821;SDS011;72257;52.384;4.882;2024-02-21T03:53:03;14.25;;;2.92;;
81821;SDS011;72257;52.384;4.882;2024-02-21T03:55:28;9.40;;;2.23;;
81821;SDS011;72257;52.384;4.882;2024-02-21T03:57:54;13.43;;;3.17;;
81821;SDS011;72257;52.384;4.882;2024-02-21T04:00:19;11.40;;;3.43;;
81821;SDS011;72257;52.384;4.882;2024-02-21T04:02:44;10.13;;;2.83;;
81821;SDS011;72257;52.384;4.882;2024-02-21T04:05:10;9.70;;;2.90;;
81821;SDS011;72257;52.384;4.882;2024-02-21T04:07:36;17.33;;;3.35;;
81821;SDS011;72257;52.384;4.882;2024-02-21T04:10:03;22.05;;;3.13;;
81821;SDS011;72257;52.384;4.882;2024-02-21T04:12:28;10.20;;;2.53;;
81821;SDS011;72257;52.384;4.882;2024-02-21T04:14:53;6.10;;;1.90;;
81821;SDS011;72257;52.384;4.882;2024-02-21T04:17:19;11.23;;;2.90;;
81821;SDS011;72257;52.384;4.882;2024-02-21T04:19:44;12.03;;;2.43;;
81821;SDS011;72257;52.384;4.882;2024-02-21T04:22:09;11.90;;;2.53;;
81821;SDS011;72257;52.384;4.882;2024-02-21T04:24:35;12.67;;;3.17;;
81821;SDS011;72257;52.384;4.882;2024-02-21T04:27:00;10.70;;;3.33;;
81821;SDS011;72257;52.384;4.882;2024-02-21T04:29:26;8.73;;;2.47;;
81821;SDS011;72257;52.384;4.882;2024-02-21T04:31:52;9.10;;;2.30;;
81821;SDS011;72257;52.384;4.882;2024-02-21T04:34:18;10.23;;;3.00;;
81821;SDS011;72257;52.384;4.882;2024-02-21T04:36:43;7.97;;;2.87;;
81821;SDS011;72257;52.384;4.882;2024-02-21T04:39:08;16.37;;;3.67;;
81821;SDS011;72257;52.384;4.882;2024-02-21T04:41:34;8.07;;;2.43;;
81821;SDS011;72257;52.384;4.882;2024-02-21T04:43:59;8.47;;;2.47;;
81821;SDS011;72257;52.384;4.882;2024-02-21T04:46:24;8.75;;;2.63;;
81821;SDS011;72257;52.384;4.882;2024-02-21T04:48:50;10.03;;;2.43;;
81821;SDS011;72257;52.384;4.882;2024-02-21T04:51:15;11.90;;;3.37;;
81821;SDS011;72257;52.384;4.882;2024-02-21T04:53:41;5.95;;;2.60;;
81821;SDS011;72257;52.384;4.882;2024-02-21T04:56:06;13.20;;;2.70;;
81821;SDS011;72257;52.384;4.882;2024-02-21T04:58:31;10.60;;;3.57;;
81821;SDS011;72257;52.384;4.882;2024-02-21T05:00:56;7.95;;;2.53;;
81821;SDS011;72257;52.384;4.882;2024-02-21T05:03:23;11.30;;;2.90;;
81821;SDS011;72257;52.384;4.882;2024-02-21T05:05:48;13.43;;;3.23;;
81821;SDS011;72257;52.384;4.882;2024-02-21T05:08:13;14.00;;;3.60;;
81821;SDS011;72257;52.384;4.882;2024-02-21T05:10:39;8.02;;;2.38;;
81821;SDS011;72257;52.384;4.882;2024-02-21T05:13:04;11.30;;;2.63;;
81821;SDS011;72257;52.384;4.882;2024-02-21T05:15:29;9.25;;;3.53;;
81821;SDS011;72257;52.384;4.882;2024-02-21T05:17:55;9.35;;;3.08;;
81821;SDS011;72257;52.384;4.882;2024-02-21T05:20:20;6.73;;;2.80;;
81821;SDS011;72257;52.384;4.882;2024-02-21T05:22:45;8.93;;;2.58;;
81821;SDS011;72257;52.384;4.882;2024-02-21T05:25:11;8.50;;;3.03;;
81821;SDS011;72257;52.384;4.882;2024-02-21T05:27:36;10.57;;;2.77;;
81821;SDS011;72257;52.384;4.882;2024-02-21T05:30:03;11.30;;;2.92;;
81821;SDS011;72257;52.384;4.882;2024-02-21T05:32:31;7.35;;;3.08;;
81821;SDS011;72257;52.384;4.882;2024-02-21T05:34:56;11.07;;;3.60;;
81821;SDS011;72257;52.384;4.882;2024-02-21T05:37:23;13.75;;;3.90;;
81821;SDS011;72257;52.384;4.882;2024-02-21T05:39:49;12.23;;;3.42;;
81821;SDS011;72257;52.384;4.882;2024-02-21T05:42:14;13.03;;;3.80;;
81821;SDS011;72257;52.384;4.882;2024-02-21T05:44:39;15.10;;;4.10;;
81821;SDS011;72257;52.384;4.882;2024-02-21T05:47:04;10.13;;;3.70;;
81821;SDS011;72257;52.384;4.882;2024-02-21T05:49:34;9.02;;;3.33;;
81821;SDS011;72257;52.384;4.882;2024-02-21T05:52:00;9.15;;;3.63;;
81821;SDS011;72257;52.384;4.882;2024-02-21T05:54:25;8.17;;;3.63;;
81821;SDS011;72257;52.384;4.882;2024-02-21T05:56:51;5.63;;;3.03;;
81821;SDS011;72257;52.384;4.882;2024-02-21T05:59:17;11.35;;;3.60;;
81821;SDS011;72257;52.384;4.882;2024-02-21T06:01:42;8.43;;;4.00;;
81821;SDS011;72257;52.384;4.882;2024-02-21T06:04:07;12.67;;;3.50;;
81821;SDS011;72257;52.384;4.882;2024-02-21T06:06:33;8.77;;;4.10;;
81821;SDS011;72257;52.384;4.882;2024-02-21T06:08:59;11.65;;;4.30;;
81821;SDS011;72257;52.384;4.882;2024-02-21T06:11:25;10.88;;;4.53;;
81821;SDS011;72257;52.384;4.882;2024-02-21T06:13:50;10.30;;;4.10;;
81821;SDS011;72257;52.384;4.882;2024-02-21T06:16:15;10.23;;;4.17;;
81821;SDS011;72257;52.384;4.882;2024-02-21T06:18:41;7.30;;;4.13;;
81821;SDS011;72257;52.384;4.882;2024-02-21T06:21:06;11.98;;;5.22;;
81821;SDS011;72257;52.384;4.882;2024-02-21T06:23:32;13.68;;;5.20;;
81821;SDS011;72257;52.384;4.882;2024-02-21T06:25:57;12.15;;;5.32;;
81821;SDS011;72257;52.384;4.882;2024-02-21T06:28:22;7.23;;;4.40;;
81821;SDS011;72257;52.384;4.882;2024-02-21T06:30:48;15.17;;;6.00;;
81821;SDS011;72257;52.384;4.882;2024-02-21T06:33:13;9.73;;;5.93;;
81821;SDS011;72257;52.384;4.882;2024-02-21T06:35:38;15.00;;;6.47;;
81821;SDS011;72257;52.384;4.882;2024-02-21T06:38:06;11.50;;;6.30;;
81821;SDS011;72257;52.384;4.882;2024-02-21T06:40:31;11.43;;;5.63;;
81821;SDS011;72257;52.384;4.882;2024-02-21T06:43:03;12.00;;;6.47;;
81821;SDS011;72257;52.384;4.882;2024-02-21T06:45:28;12.90;;;6.23;;
81821;SDS011;72257;52.384;4.882;2024-02-21T06:47:54;10.75;;;6.10;;
81821;SDS011;72257;52.384;4.882;2024-02-21T06:50:19;12.88;;;6.05;;
81821;SDS011;72257;52.384;4.882;2024-02-21T06:52:44;14.60;;;6.10;;
81821;SDS011;72257;52.384;4.882;2024-02-21T06:55:10;11.83;;;6.30;;
81821;SDS011;72257;52.384;4.882;2024-02-21T06:57:35;14.03;;;6.33;;
81821;SDS011;72257;52.384;4.882;2024-02-21T07:00:00;14.50;;;6.83;;
81821;SDS011;72257;52.384;4.882;2024-02-21T07:02:26;10.93;;;6.63;;
81821;SDS011;72257;52.384;4.882;2024-02-21T07:04:51;11.13;;;5.70;;
81821;SDS011;72257;52.384;4.882;2024-02-21T07:07:16;12.90;;;5.93;;
81821;SDS011;72257;52.384;4.882;2024-02-21T07:09:42;10.20;;;5.93;;
81821;SDS011;72257;52.384;4.882;2024-02-21T07:12:07;14.67;;;6.60;;
81821;SDS011;72257;52.384;4.882;2024-02-21T07:14:33;15.63;;;6.90;;
81821;SDS011;72257;52.384;4.882;2024-02-21T07:16:58;15.32;;;7.15;;
81821;SDS011;72257;52.384;4.882;2024-02-21T07:19:23;15.23;;;6.80;;
81821;SDS011;72257;52.384;4.882;2024-02-21T07:21:49;11.53;;;7.33;;
81821;SDS011;72257;52.384;4.882;2024-02-21T07:24:14;16.98;;;7.10;;
81821;SDS011;72257;52.384;4.882;2024-02-21T07:26:43;12.35;;;7.70;;
81821;SDS011;72257;52.384;4.882;2024-02-21T07:29:09;14.52;;;7.47;;
81821;SDS011;72257;52.384;4.882;2024-02-21T07:31:41;12.57;;;7.43;;
81821;SDS011;72257;52.384;4.882;2024-02-21T07:34:06;14.70;;;8.20;;
81821;SDS011;72257;52.384;4.882;2024-02-21T07:36:32;12.77;;;7.63;;
81821;SDS011;72257;52.384;4.882;2024-02-21T07:38:57;15.73;;;7.67;;
81821;SDS011;72257;52.384;4.882;2024-02-21T07:41:22;13.13;;;7.87;;
81821;SDS011;72257;52.384;4.882;2024-02-21T07:43:48;15.33;;;7.67;;
81821;SDS011;72257;52.384;4.882;2024-02-21T07:46:17;15.20;;;7.72;;
81821;SDS011;72257;52.384;4.882;2024-02-21T07:48:42;13.25;;;8.15;;
81821;SDS011;72257;52.384;4.882;2024-02-21T07:51:08;22.10;;;7.80;;
81821;SDS011;72257;52.384;4.882;2024-02-21T07:53:33;18.50;;;8.13;;
81821;SDS011;72257;52.384;4.882;2024-02-21T07:55:59;16.17;;;7.97;;
81821;SDS011;72257;52.384;4.882;2024-02-21T07:58:24;14.38;;;8.25;;
81821;SDS011;72257;52.384;4.882;2024-02-21T08:00:50;14.88;;;7.95;;
81821;SDS011;72257;52.384;4.882;2024-02-21T08:03:15;18.58;;;8.68;;
81821;SDS011;72257;52.384;4.882;2024-02-21T08:05:42;17.13;;;8.70;;
81821;SDS011;72257;52.384;4.882;2024-02-21T08:08:08;16.10;;;7.75;;
81821;SDS011;72257;52.384;4.882;2024-02-21T08:10:34;20.30;;;8.07;;
81821;SDS011;72257;52.384;4.882;2024-02-21T08:12:59;19.95;;;8.77;;
81821;SDS011;72257;52.384;4.882;2024-02-21T08:15:25;15.77;;;7.90;;
81821;SDS011;72257;52.384;4.882;2024-02-21T08:17:54;15.68;;;6.97;;
81821;SDS011;72257;52.384;4.882;2024-02-21T08:20:23;13.90;;;6.85;;
81821;SDS011;72257;52.384;4.882;2024-02-21T08:22:50;13.85;;;7.32;;
81821;SDS011;72257;52.384;4.882;2024-02-21T08:25:15;14.75;;;8.18;;
81821;SDS011;72257;52.384;4.882;2024-02-21T08:27:40;15.20;;;6.93;;
81821;SDS011;72257;52.384;4.882;2024-02-21T08:30:06;14.30;;;7.00;;
81821;SDS011;72257;52.384;4.882;2024-02-21T08:32:32;14.38;;;8.20;;
81821;SDS011;72257;52.384;4.882;2024-02-21T08:34:59;17.05;;;8.52;;
81821;SDS011;72257;52.384;4.882;2024-02-21T08:37:24;14.13;;;7.17;;
81821;SDS011;72257;52.384;4.882;2024-02-21T08:39:52;13.93;;;8.07;;
81821;SDS011;72257;52.384;4.882;2024-02-21T08:42:17;14.80;;;8.23;;
81821;SDS011;72257;52.384;4.882;2024-02-21T08:44:43;16.63;;;7.33;;
81821;SDS011;72257;52.384;4.882;2024-02-21T08:47:08;14.93;;;7.53;;
81821;SDS011;72257;52.384;4.882;2024-02-21T08:49:35;15.48;;;7.50;;
81821;SDS011;72257;52.384;4.882;2024-02-21T08:52:00;14.52;;;8.13;;
81821;SDS011;72257;52.384;4.882;2024-02-21T08:54:27;15.50;;;7.45;;
81821;SDS011;72257;52.384;4.882;2024-02-21T08:56:53;14.53;;;7.67;;
81821;SDS011;72257;52.384;4.882;2024-02-21T08:59:19;13.80;;;7.53;;
81821;SDS011;72257;52.384;4.882;2024-02-21T09:01:45;15.30;;;7.55;;
81821;SDS011;72257;52.384;4.882;2024-02-21T09:04:11;17.05;;;8.77;;
81821;SDS011;72257;52.384;4.882;2024-02-21T09:06:36;15.23;;;7.28;;
81821;SDS011;72257;52.384;4.882;2024-02-21T09:09:04;18.98;;;7.78;;
81821;SDS011;72257;52.384;4.882;2024-02-21T09:11:29;19.67;;;8.27;;
81821;SDS011;72257;52.384;4.882;2024-02-21T09:13:55;17.40;;;8.17;;
81821;SDS011;72257;52.384;4.882;2024-02-21T09:16:20;20.02;;;8.35;;
81821;SDS011;72257;52.384;4.882;2024-02-21T09:18:46;13.38;;;7.00;;
81821;SDS011;72257;52.384;4.882;2024-02-21T09:21:11;13.38;;;7.15;;
81821;SDS011;72257;52.384;4.882;2024-02-21T09:23:37;14.80;;;7.15;;
81821;SDS011;72257;52.384;4.882;2024-02-21T09:26:02;13.53;;;7.37;;
81821;SDS011;72257;52.384;4.882;2024-02-21T09:28:29;17.23;;;7.57;;
81821;SDS011;72257;52.384;4.882;2024-02-21T09:30:54;14.73;;;8.18;;
81821;SDS011;72257;52.384;4.882;2024-02-21T09:33:20;12.73;;;7.93;;
81821;SDS011;72257;52.384;4.882;2024-02-21T09:35:45;16.95;;;7.25;;
81821;SDS011;72257;52.384;4.882;2024-02-21T09:38:12;13.95;;;7.40;;
81821;SDS011;72257;52.384;4.882;2024-02-21T09:40:37;14.00;;;7.50;;
81821;SDS011;72257;52.384;4.882;2024-02-21T09:43:04;14.57;;;7.53;;
81821;SDS011;72257;52.384;4.882;2024-02-21T09:45:31;15.65;;;9.02;;
81821;SDS011;72257;52.384;4.882;2024-02-21T09:50:50;13.27;;;7.68;;
81821;SDS011;72257;52.384;4.882;2024-02-21T09:53:18;14.15;;;8.27;;
81821;SDS011;72257;52.384;4.882;2024-02-21T09:55:44;13.35;;;8.63;;
81821;SDS011;72257;52.384;4.882;2024-02-21T09:58:11;13.88;;;7.72;;
81821;SDS011;72257;52.384;4.882;2024-02-21T10:00:37;12.55;;;7.82;;
81821;SDS011;72257;52.384;4.882;2024-02-21T10:03:03;15.73;;;8.40;;
81821;SDS011;72257;52.384;4.882;2024-02-21T10:05:33;14.05;;;7.60;;
81821;SDS011;72257;52.384;4.882;2024-02-21T10:07:59;14.18;;;8.43;;
81821;SDS011;72257;52.384;4.882;2024-02-21T10:10:24;17.95;;;8.88;;
81821;SDS011;72257;52.384;4.882;2024-02-21T10:12:50;13.18;;;8.48;;
81821;SDS011;72257;52.384;4.882;2024-02-21T10:15:19;16.63;;;9.32;;
81821;SDS011;72257;52.384;4.882;2024-02-21T10:17:49;15.73;;;8.63;;
81821;SDS011;72257;52.384;4.882;2024-02-21T10:20:14;13.40;;;8.60;;
81821;SDS011;72257;52.384;4.882;2024-02-21T10:22:41;17.70;;;9.20;;
81821;SDS011;72257;52.384;4.882;2024-02-21T10:25:09;14.70;;;7.63;;
81821;SDS011;72257;52.384;4.882;2024-02-21T10:27:38;14.10;;;8.10;;
81821;SDS011;72257;52.384;4.882;2024-02-21T10:30:12;17.83;;;8.43;;
81821;SDS011;72257;52.384;4.882;2024-02-21T10:32:51;15.57;;;8.95;;
81821;SDS011;72257;52.384;4.882;2024-02-21T10:35:28;20.02;;;8.60;;
81821;SDS011;72257;52.384;4.882;2024-02-21T10:37:55;14.35;;;7.82;;
81821;SDS011;72257;52.384;4.882;2024-02-21T10:40:24;11.55;;;7.15;;
81821;SDS011;72257;52.384;4.882;2024-02-21T10:42:57;14.40;;;8.32;;
81821;SDS011;72257;52.384;4.882;2024-02-21T10:45:30;18.15;;;8.43;;
81821;SDS011;72257;52.384;4.882;2024-02-21T10:48:16;16.58;;;8.23;;
81821;SDS011;72257;52.384;4.882;2024-02-21T10:50:57;15.20;;;7.22;;
81821;SDS011;72257;52.384;4.882;2024-02-21T10:58:59;16.60;;;6.72;;
81821;SDS011;72257;52.384;4.882;2024-02-21T11:01:26;14.57;;;6.50;;
81821;SDS011;72257;52.384;4.882;2024-02-21T11:03:54;11.48;;;6.55;;
81821;SDS011;72257;52.384;4.882;2024-02-21T11:06:22;11.05;;;6.32;;
81821;SDS011;72257;52.384;4.882;2024-02-21T11:08:58;10.05;;;6.70;;
81821;SDS011;72257;52.384;4.882;2024-02-21T11:14:09;13.07;;;6.78;;
81821;SDS011;72257;52.384;4.882;2024-02-21T11:16:39;11.80;;;6.28;;
81821;SDS011;72257;52.384;4.882;2024-02-21T11:19:27;8.90;;;5.65;;
81821;SDS011;72257;52.384;4.882;2024-02-21T11:29:39;11.00;;;6.10;;
81821;SDS011;72257;52.384;4.882;2024-02-21T11:32:06;11.45;;;6.13;;
81821;SDS011;72257;52.384;4.882;2024-02-21T11:34:34;11.18;;;6.47;;
81821;SDS011;72257;52.384;4.882;2024-02-21T11:36:59;10.30;;;6.40;;
81821;SDS011;72257;52.384;4.882;2024-02-21T11:39:25;12.13;;;6.33;;
81821;SDS011;72257;52.384;4.882;2024-02-21T11:42:01;10.30;;;6.35;;
81821;SDS011;72257;52.384;4.882;2024-02-21T11:44:26;10.75;;;6.55;;
81821;SDS011;72257;52.384;4.882;2024-02-21T11:46:52;11.73;;;6.53;;
81821;SDS011;72257;52.384;4.882;2024-02-21T11:49:17;9.70;;;6.53;;
81821;SDS011;72257;52.384;4.882;2024-02-21T11:51:42;12.05;;;5.97;;
81821;SDS011;72257;52.384;4.882;2024-02-21T11:54:08;11.98;;;5.78;;
81821;SDS011;72257;52.384;4.882;2024-02-21T11:56:34;11.02;;;6.35;;
81821;SDS011;72257;52.384;4.882;2024-02-21T11:59:00;9.45;;;6.38;;
81821;SDS011;72257;52.384;4.882;2024-02-21T12:01:25;7.80;;;5.53;;
81821;SDS011;72257;52.384;4.882;2024-02-21T12:03:50;9.90;;;6.00;;
81821;SDS011;72257;52.384;4.882;2024-02-21T12:06:16;10.63;;;5.90;;
81821;SDS011;72257;52.384;4.882;2024-02-21T12:08:47;9.95;;;5.55;;
81821;SDS011;72257;52.384;4.882;2024-02-21T12:11:21;9.35;;;6.22;;
81821;SDS011;72257;52.384;4.882;2024-02-21T12:14:03;9.15;;;6.18;;
81821;SDS011;72257;52.384;4.882;2024-02-21T12:16:30;10.02;;;6.38;;
81821;SDS011;72257;52.384;4.882;2024-02-21T12:18:57;9.35;;;5.50;;
81821;SDS011;72257;52.384;4.882;2024-02-21T12:21:33;9.80;;;5.38;;
81821;SDS011;72257;52.384;4.882;2024-02-21T12:24:11;11.57;;;4.68;;
81821;SDS011;72257;52.384;4.882;2024-02-21T12:26:37;7.20;;;4.85;;
81821;SDS011;72257;52.384;4.882;2024-02-21T12:29:03;8.07;;;5.67;;
81821;SDS011;72257;52.384;4.882;2024-02-21T12:31:28;8.70;;;5.50;;
81821;SDS011;72257;52.384;4.882;2024-02-21T12:33:54;9.48;;;5.38;;
81821;SDS011;72257;52.384;4.882;2024-02-21T12:36:19;8.93;;;5.72;;
81821;SDS011;72257;52.384;4.882;2024-02-21T12:38:44;6.70;;;4.50;;
81821;SDS011;72257;52.384;4.882;2024-02-21T12:41:11;10.13;;;5.60;;
81821;SDS011;72257;52.384;4.882;2024-02-21T12:43:37;7.67;;;4.87;;
81821;SDS011;72257;52.384;4.882;2024-02-21T12:46:03;10.38;;;4.95;;
81821;SDS011;72257;52.384;4.882;2024-02-21T12:48:28;8.35;;;5.93;;
81821;SDS011;72257;52.384;4.882;2024-02-21T12:50:54;9.47;;;5.43;;
81821;SDS011;72257;52.384;4.882;2024-02-21T12:53:19;8.90;;;6.18;;
81821;SDS011;72257;52.384;4.882;2024-02-21T12:55:49;7.80;;;5.07;;
81821;SDS011;72257;52.384;4.882;2024-02-21T12:58:15;9.65;;;6.03;;
81821;SDS011;72257;52.384;4.882;2024-02-21T13:00:41;10.73;;;5.50;;
81821;SDS011;72257;52.384;4.882;2024-02-21T13:03:07;9.77;;;5.50;;
81821;SDS011;72257;52.384;4.882;2024-02-21T13:05:32;9.52;;;5.63;;
81821;SDS011;72257;52.384;4.882;2024-02-21T13:07:58;10.52;;;5.72;;
81821;SDS011;72257;52.384;4.882;2024-02-21T13:10:24;8.77;;;4.53;;
81821;SDS011;72257;52.384;4.882;2024-02-21T13:12:50;9.85;;;5.40;;
81821;SDS011;72257;52.384;4.882;2024-02-21T13:15:15;8.80;;;4.65;;
81821;SDS011;72257;52.384;4.882;2024-02-21T13:17:43;8.95;;;5.47;;
81821;SDS011;72257;52.384;4.882;2024-02-21T13:20:09;12.13;;;5.20;;
81821;SDS011;72257;52.384;4.882;2024-02-21T13:22:35;9.10;;;5.25;;
81821;SDS011;72257;52.384;4.882;2024-02-21T13:25:01;8.38;;;5.60;;
81821;SDS011;72257;52.384;4.882;2024-02-21T13:27:26;11.10;;;5.33;;
81821;SDS011;72257;52.384;4.882;2024-02-21T13:29:51;7.90;;;5.23;;
81821;SDS011;72257;52.384;4.882;2024-02-21T13:32:18;8.25;;;4.90;;
81821;SDS011;72257;52.384;4.882;2024-02-21T13:34:43;9.07;;;4.80;;
81821;SDS011;72257;52.384;4.882;2024-02-21T13:37:09;9.90;;;5.30;;
81821;SDS011;72257;52.384;4.882;2024-02-21T13:39:35;8.32;;;4.57;;
81821;SDS011;72257;52.384;4.882;2024-02-21T13:42:00;10.40;;;5.47;;
81821;SDS011;72257;52.384;4.882;2024-02-21T13:44:26;9.98;;;6.20;;
81821;SDS011;72257;52.384;4.882;2024-02-21T13:46:51;12.97;;;6.10;;
81821;SDS011;72257;52.384;4.882;2024-02-21T13:49:17;10.07;;;5.60;;
81821;SDS011;72257;52.384;4.882;2024-02-21T13:51:42;12.50;;;6.05;;
81821;SDS011;72257;52.384;4.882;2024-02-21T13:54:09;10.27;;;5.47;;
81821;SDS011;72257;52.384;4.882;2024-02-21T13:56:36;11.85;;;5.97;;
81821;SDS011;72257;52.384;4.882;2024-02-21T13:59:02;9.68;;;5.57;;
81821;SDS011;72257;52.384;4.882;2024-02-21T14:01:27;10.32;;;5.95;;
81821;SDS011;72257;52.384;4.882;2024-02-21T14:03:56;10.80;;;5.60;;
81821;SDS011;72257;52.384;4.882;2024-02-21T14:06:22;8.15;;;5.10;;
81821;SDS011;72257;52.384;4.882;2024-02-21T14:08:47;10.50;;;5.43;;
81821;SDS011;72257;52.384;4.882;2024-02-21T14:11:12;11.33;;;5.40;;
81821;SDS011;72257;52.384;4.882;2024-02-21T14:13:39;7.85;;;5.13;;
81821;SDS011;72257;52.384;4.882;2024-02-21T14:16:08;9.03;;;5.40;;
81821;SDS011;72257;52.384;4.882;2024-02-21T14:18:36;8.95;;;4.57;;
81821;SDS011;72257;52.384;4.882;2024-02-21T14:21:02;9.82;;;4.65;;
81821;SDS011;72257;52.384;4.882;2024-02-21T14:23:28;10.25;;;5.40;;
81821;SDS011;72257;52.384;4.882;2024-02-21T14:25:54;9.00;;;4.70;;
81821;SDS011;72257;52.384;4.882;2024-02-21T14:28:19;8.90;;;4.90;;
81821;SDS011;72257;52.384;4.882;2024-02-21T14:30:44;6.90;;;4.30;;
81821;SDS011;72257;52.384;4.882;2024-02-21T14:33:12;6.28;;;3.58;;
81821;SDS011;72257;52.384;4.882;2024-02-21T14:35:38;9.27;;;4.90;;
81821;SDS011;72257;52.384;4.882;2024-02-21T14:38:03;8.03;;;3.60;;
81821;SDS011;72257;52.384;4.882;2024-02-21T14:40:29;10.30;;;4.15;;
81821;SDS011;72257;52.384;4.882;2024-02-21T14:42:55;7.25;;;4.25;;
81821;SDS011;72257;52.384;4.882;2024-02-21T14:45:21;9.70;;;4.07;;
81821;SDS011;72257;52.384;4.882;2024-02-21T14:47:48;5.65;;;4.00;;
81821;SDS011;72257;52.384;4.882;2024-02-21T14:50:13;10.38;;;4.82;;
81821;SDS011;72257;52.384;4.882;2024-02-21T14:52:38;9.07;;;4.10;;